Time,TemperatureF,DewpointF,PressureIn,WindDirection,WindDirectionDegrees,WindSpeedMPH,WindSpeedGustMPH,Humidity,HourlyPrecipIn,Conditions,Clouds,dailyrainin,SoftwareType,DateUTC
2013-01-11 00:03:00,42.0,32.0,-100.00,ENE,73,1.0,6.0,71,0.00,,,-99.99,,2013-01-11 05:03:00,
2013-01-11 00:13:00,39.0,32.0,-100.00,ESE,110,0.0,6.0,72,0.00,,,-99.99,,2013-01-11 05:13:00,
2013-01-11 00:22:00,39.0,30.0,-100.00,NNW,327,0.0,6.0,69,0.00,,,-99.99,,2013-01-11 05:22:00,
2013-01-11 00:33:00,38.0,28.0,-100.00,North,350,1.0,6.0,67,0.00,,,-99.99,,2013-01-11 05:33:00,
2013-01-11 00:43:00,40.0,30.0,-100.00,NE,49,0.0,6.0,67,0.00,,,-99.99,,2013-01-11 05:43:00,
2013-01-11 00:52:00,40.0,32.0,-100.00,ENE,59,0.0,6.0,69,0.00,,,-99.99,,2013-01-11 05:52:00,
2013-01-11 01:03:00,42.0,32.0,-100.00,West,276,0.0,6.0,68,0.00,,,-99.99,,2013-01-11 06:03:00,
2013-01-11 01:12:00,41.0,32.0,-100.00,WNW,288,0.0,6.0,68,0.00,,,-99.99,,2013-01-11 06:12:00,
2013-01-11 01:22:00,39.0,30.0,-100.00,WNW,303,0.0,6.0,68,0.00,,,-99.99,,2013-01-11 06:22:00,
2013-01-11 01:32:00,39.0,30.0,-100.00,NW,313,0.0,6.0,68,0.00,,,-99.99,,2013-01-11 06:32:00,
2013-01-11 01:42:00,41.0,32.0,-100.00,NE,50,1.0,6.0,69,0.00,,,-99.99,,2013-01-11 06:42:00,
2013-01-11 01:52:00,39.0,30.0,-100.00,SSW,192,0.0,6.0,71,0.00,,,-99.99,,2013-01-11 06:52:00,
2013-01-11 02:02:00,40.0,32.0,-100.00,ENE,59,0.0,6.0,69,0.00,,,-99.99,,2013-01-11 07:02:00,
2013-01-11 02:12:00,41.0,32.0,-100.00,SE,125,0.0,6.0,68,0.00,,,-99.99,,2013-01-11 07:12:00,
2013-01-11 02:22:00,41.0,32.0,-100.00,WNW,282,0.0,6.0,69,0.00,,,-99.99,,2013-01-11 07:22:00,
2013-01-11 02:32:00,42.0,32.0,-100.00,SW,232,0.0,6.0,69,0.00,,,-99.99,,2013-01-11 07:32:00,
2013-01-11 02:42:00,39.0,30.0,-100.00,SSW,213,1.0,6.0,69,0.00,,,-99.99,,2013-01-11 07:42:00,
2013-01-11 02:52:00,40.0,30.0,-100.00,West,259,1.0,6.0,68,0.00,,,-99.99,,2013-01-11 07:52:00,
2013-01-11 03:02:00,41.0,32.0,-100.00,West,276,0.0,6.0,69,0.00,,,-99.99,,2013-01-11 08:02:00,
2013-01-11 03:12:00,40.0,32.0,-100.00,South,183,0.0,6.0,69,0.00,,,-99.99,,2013-01-11 08:12:00,
2013-01-11 03:22:00,40.0,32.0,-100.00,SE,135,0.0,6.0,69,0.00,,,-99.99,,2013-01-11 08:22:00,
2013-01-11 03:32:00,40.0,32.0,-100.00,NNW,337,0.0,6.0,68,0.00,,,-99.99,,2013-01-11 08:32:00,
2013-01-11 03:42:00,40.0,32.0,-100.00,North,0,0.0,6.0,68,0.00,,,-99.99,,2013-01-11 08:42:00,
2013-01-11 03:52:00,41.0,32.0,-100.00,North,11,1.0,6.0,67,0.00,,,-99.99,,2013-01-11 08:52:00,
2013-01-11 04:02:00,40.0,32.0,-100.00,SW,232,0.0,6.0,68,0.00,,,-99.99,,2013-01-11 09:02:00,
2013-01-11 04:12:00,41.0,32.0,-100.00,SW,225,1.0,6.0,66,5.12,,,-99.99,,2013-01-11 09:12:00,
2013-01-11 04:23:00,42.0,32.0,-100.00,NW,310,0.0,6.0,71,0.00,,,-99.99,,2013-01-11 09:23:00,
2013-01-11 04:32:00,42.0,34.0,-100.00,NNE,14,0.0,6.0,75,0.00,,,-99.99,,2013-01-11 09:32:00,
2013-01-11 04:42:00,40.0,32.0,-100.00,South,170,0.0,6.0,75,0.00,,,-99.99,,2013-01-11 09:42:00,
2013-01-11 04:52:00,38.0,32.0,-100.00,SW,218,1.0,6.0,75,0.00,,,-99.99,,2013-01-11 09:52:00,
2013-01-11 05:02:00,38.0,32.0,-100.00,SSW,210,0.0,6.0,75,0.00,,,-99.99,,2013-01-11 10:02:00,
2013-01-11 05:12:00,41.0,34.0,-100.00,SW,223,0.0,6.0,75,0.00,,,-99.99,,2013-01-11 10:12:00,
2013-01-11 05:22:00,41.0,32.0,-100.00,WSW,245,0.0,6.0,73,0.00,,,-99.99,,2013-01-11 10:22:00,
2013-01-11 05:32:00,41.0,32.0,-100.00,SSW,208,0.0,6.0,73,0.00,,,-99.99,,2013-01-11 10:32:00,
2013-01-11 05:42:00,41.0,32.0,-100.00,WNW,290,0.0,6.0,72,0.00,,,-99.99,,2013-01-11 10:42:00,
2013-01-11 05:52:00,41.0,32.0,-100.00,South,180,0.0,6.0,71,0.00,,,-99.99,,2013-01-11 10:52:00,
2013-01-11 06:03:00,41.0,32.0,-100.00,SW,220,0.0,0.0,71,0.00,,,-99.99,,2013-01-11 11:03:00,
2013-01-11 06:12:00,41.0,32.0,-100.00,SE,138,0.0,0.0,71,0.00,,,-99.99,,2013-01-11 11:12:00,
2013-01-11 06:22:00,41.0,32.0,-100.00,NNW,337,0.0,0.0,72,0.00,,,-99.99,,2013-01-11 11:22:00,
2013-01-11 06:33:00,40.0,32.0,-100.00,SSW,206,0.0,0.0,73,5.12,,,-99.99,,2013-01-11 11:33:00,
2013-01-11 06:43:00,40.0,32.0,-100.00,NE,42,0.0,0.0,75,8.50,,,-99.99,,2013-01-11 11:43:00,
2013-01-11 06:53:00,41.0,34.0,-100.00,NNE,25,0.0,0.0,75,0.55,,,-99.99,,2013-01-11 11:53:00,
2013-01-11 07:03:00,41.0,34.0,-100.00,SSE,153,0.0,0.0,77,7.95,,,-99.99,,2013-01-11 12:03:00,
2013-01-11 07:12:00,41.0,36.0,-100.00,North,360,0.0,0.0,82,1.69,,,-99.99,,2013-01-11 12:12:00,
2013-01-11 07:22:00,43.0,37.0,-100.00,ENE,66,0.0,0.0,85,0.00,,,-99.99,,2013-01-11 12:22:00,
2013-01-11 07:33:00,40.0,36.0,-100.00,North,350,0.0,0.0,84,0.00,,,-99.99,,2013-01-11 12:33:00,
2013-01-11 07:43:00,40.0,36.0,-100.00,NW,307,0.0,0.0,89,0.00,,,-99.99,,2013-01-11 12:43:00,
2013-01-11 07:52:00,42.0,37.0,-100.00,NNE,26,0.0,0.0,88,0.00,,,-99.99,,2013-01-11 12:52:00,
2013-01-11 08:03:00,38.0,34.0,-100.00,NNE,32,0.0,0.0,89,0.00,,,-99.99,,2013-01-11 13:03:00,
2013-01-11 08:13:00,42.0,37.0,-100.00,NW,323,0.0,0.0,89,0.00,,,-99.99,,2013-01-11 13:13:00,
2013-01-11 08:22:00,43.0,39.0,-100.00,NE,35,0.0,0.0,90,0.00,,,-99.99,,2013-01-11 13:22:00,
2013-01-11 08:33:00,40.0,36.0,-100.00,North,9,1.0,1.0,89,0.00,,,-99.99,,2013-01-11 13:33:00,
2013-01-11 08:43:00,38.0,34.0,-100.00,SE,131,0.0,1.0,89,0.00,,,-99.99,,2013-01-11 13:43:00,
2013-01-11 08:52:00,41.0,36.0,-100.00,SW,231,0.0,1.0,88,0.00,,,-99.99,,2013-01-11 13:52:00,
2013-01-11 09:03:00,43.0,39.0,-100.00,SW,230,1.0,1.0,88,9.06,,,-99.99,,2013-01-11 14:03:00,
2013-01-11 09:12:00,45.0,41.0,-100.00,East,87,0.0,1.0,89,1.69,,,-99.99,,2013-01-11 14:12:00,
2013-01-11 09:23:00,44.0,41.0,-100.00,West,259,0.0,1.0,89,13.62,,,-99.99,,2013-01-11 14:23:00,
2013-01-11 09:33:00,45.0,41.0,-100.00,North,9,1.0,1.0,90,0.00,,,-99.99,,2013-01-11 14:33:00,
2013-01-11 09:43:00,43.0,39.0,-100.00,WSW,251,1.0,1.0,89,0.00,,,-99.99,,2013-01-11 14:43:00,
2013-01-11 09:53:00,45.0,43.0,-100.00,NNE,24,0.0,1.0,93,0.00,,,-99.99,,2013-01-11 14:53:00,
2013-01-11 10:03:00,46.0,43.0,-100.00,SSE,162,0.0,1.0,90,1.14,,,-99.99,,2013-01-11 15:03:00,
2013-01-11 10:13:00,44.0,39.0,-100.00,East,101,0.0,1.0,90,2.28,,,-99.99,,2013-01-11 15:13:00,
2013-01-11 10:23:00,46.0,43.0,-100.00,NNE,16,0.0,1.0,93,4.53,,,-99.99,,2013-01-11 15:23:00,
2013-01-11 10:33:00,43.0,39.0,-100.00,NNW,340,0.0,1.0,91,-99.99,,,-99.99,,2013-01-11 15:33:00,
2013-01-11 10:43:00,43.0,41.0,-100.00,WNW,289,0.0,1.0,94,7.36,,,-99.99,,2013-01-11 15:43:00,
2013-01-11 10:52:00,44.0,41.0,-100.00,South,183,0.0,1.0,93,20.98,,,-99.99,,2013-01-11 15:52:00,
2013-01-11 11:03:00,44.0,41.0,-100.00,WSW,245,0.0,1.0,94,13.62,,,-99.99,,2013-01-11 16:03:00,
2013-01-11 11:12:00,45.0,43.0,-100.00,SSW,211,1.0,1.0,94,-99.99,,,-99.99,,2013-01-11 16:12:00,
2013-01-11 11:23:00,43.0,41.0,-100.00,South,183,0.0,1.0,94,-99.99,,,-99.99,,2013-01-11 16:23:00,
2013-01-11 11:33:00,43.0,41.0,-100.00,SSW,206,0.0,1.0,95,27.20,,,-99.99,,2013-01-11 16:33:00,
2013-01-11 11:43:00,46.0,43.0,-100.00,West,268,1.0,2.0,95,11.89,,,-99.99,,2013-01-11 16:43:00,
2013-01-11 11:53:00,46.0,45.0,-100.00,NW,310,0.0,2.0,95,0.00,,,-99.99,,2013-01-11 16:53:00,
2013-01-11 12:03:00,47.0,46.0,-100.00,SSW,210,0.0,2.0,97,2.28,,,-99.99,,2013-01-11 17:03:00,
2013-01-11 12:12:00,46.0,45.0,-100.00,West,268,0.0,2.0,95,4.53,,,-99.99,,2013-01-11 17:12:00,
2013-01-11 12:22:00,47.0,45.0,-100.00,SE,145,0.0,2.0,95,0.00,,,-99.99,,2013-01-11 17:22:00,
2013-01-11 12:33:00,49.0,46.0,-100.00,WNW,282,0.0,2.0,98,2.28,,,-99.99,,2013-01-11 17:33:00,
2013-01-11 12:43:00,48.0,46.0,-100.00,SSW,192,0.0,2.0,97,0.55,,,-99.99,,2013-01-11 17:43:00,
2013-01-11 12:53:00,48.0,46.0,-100.00,SW,221,0.0,2.0,97,1.69,,,-99.99,,2013-01-11 17:53:00,
2013-01-11 13:04:00,47.0,45.0,-100.00,SSW,207,0.0,2.0,97,0.00,,,-99.99,,2013-01-11 18:04:00,
2013-01-11 13:13:00,48.0,46.0,-100.00,NNE,24,0.0,2.0,97,6.81,,,-99.99,,2013-01-11 18:13:00,
2013-01-11 13:23:00,51.0,48.0,-100.00,South,184,0.0,2.0,95,0.00,,,-99.99,,2013-01-11 18:23:00,
2013-01-11 13:33:00,53.0,52.0,-100.00,West,264,0.0,2.0,97,2.28,,,-99.99,,2013-01-11 18:33:00,
2013-01-11 13:43:00,52.0,50.0,-100.00,NNE,14,0.0,2.0,97,3.98,,,-99.99,,2013-01-11 18:43:00,
2013-01-11 13:53:00,50.0,48.0,-100.00,West,271,0.0,2.0,95,2.83,,,-99.99,,2013-01-11 18:53:00,
2013-01-11 14:03:00,51.0,48.0,-100.00,South,186,0.0,2.0,95,2.83,,,-99.99,,2013-01-11 19:03:00,
2013-01-11 14:12:00,50.0,48.0,-100.00,West,278,1.0,2.0,95,3.39,,,-99.99,,2013-01-11 19:12:00,
2013-01-11 14:22:00,50.0,48.0,-100.00,West,275,0.0,2.0,95,4.53,,,-99.99,,2013-01-11 19:22:00,
2013-01-11 14:33:00,53.0,52.0,-100.00,South,184,2.0,2.0,95,3.39,,,-99.99,,2013-01-11 19:33:00,
2013-01-11 14:43:00,54.0,52.0,-100.00,West,262,4.0,6.0,95,0.00,,,-99.99,,2013-01-11 19:43:00,
2013-01-11 14:53:00,55.0,52.0,-100.00,WSW,248,3.0,8.0,95,0.00,,,-99.99,,2013-01-11 19:53:00,
2013-01-11 15:03:00,57.0,55.0,-100.00,WSW,240,6.0,8.0,95,0.00,,,-99.99,,2013-01-11 20:03:00,
2013-01-11 15:13:00,58.0,55.0,-100.00,WSW,241,7.0,10.0,93,0.00,,,-99.99,,2013-01-11 20:13:00,
2013-01-11 15:22:00,58.0,55.0,-100.00,West,264,5.0,10.0,93,0.00,,,-99.99,,2013-01-11 20:22:00,
2013-01-11 15:33:00,58.0,54.0,-100.00,WSW,251,6.0,10.0,90,0.00,,,-99.99,,2013-01-11 20:33:00,
2013-01-11 15:43:00,58.0,54.0,-100.00,SW,231,6.0,10.0,88,0.00,,,-99.99,,2013-01-11 20:43:00,
2013-01-11 15:52:00,59.0,55.0,-100.00,SW,220,6.0,10.0,88,0.00,,,-99.99,,2013-01-11 20:52:00,
2013-01-11 16:03:00,58.0,52.0,-100.00,West,259,4.0,10.0,86,0.00,,,-99.99,,2013-01-11 21:03:00,
2013-01-11 16:13:00,60.0,55.0,-100.00,WSW,247,3.0,10.0,89,0.00,,,-99.99,,2013-01-11 21:13:00,
2013-01-11 16:23:00,59.0,54.0,-100.00,WSW,244,5.0,10.0,86,0.00,,,-99.99,,2013-01-11 21:23:00,
2013-01-11 16:33:00,56.0,52.0,-100.00,SSW,207,2.0,10.0,86,0.00,,,-99.99,,2013-01-11 21:33:00,
2013-01-11 16:42:00,58.0,54.0,-100.00,SSW,207,2.0,10.0,86,0.00,,,-99.99,,2013-01-11 21:42:00,
2013-01-11 16:52:00,58.0,52.0,-100.00,South,184,2.0,10.0,85,0.00,,,-99.99,,2013-01-11 21:52:00,
2013-01-11 17:03:00,56.0,52.0,-100.00,SW,227,1.0,10.0,89,0.00,,,-99.99,,2013-01-11 22:03:00,
2013-01-11 17:12:00,55.0,50.0,-100.00,SE,127,0.0,10.0,88,0.00,,,-99.99,,2013-01-11 22:12:00,
2013-01-11 17:22:00,56.0,52.0,-100.00,SE,129,0.0,10.0,90,0.00,,,-99.99,,2013-01-11 22:22:00,
2013-01-11 17:33:00,56.0,52.0,-100.00,SSW,194,0.0,10.0,90,0.00,,,-99.99,,2013-01-11 22:33:00,
2013-01-11 17:42:00,54.0,50.0,-100.00,SW,214,0.0,10.0,90,0.00,,,-99.99,,2013-01-11 22:42:00,
2013-01-11 17:52:00,54.0,50.0,-100.00,SE,132,0.0,10.0,91,0.00,,,-99.99,,2013-01-11 22:52:00,
2013-01-11 18:02:00,55.0,50.0,-100.00,ENE,60,0.0,10.0,90,0.00,,,-99.99,,2013-01-11 23:02:00,
2013-01-11 18:13:00,52.0,48.0,-100.00,SSW,203,0.0,10.0,91,0.00,,,-99.99,,2013-01-11 23:13:00,
2013-01-11 18:23:00,54.0,50.0,-100.00,SSW,200,0.0,10.0,91,0.00,,,-99.99,,2013-01-11 23:23:00,
2013-01-11 18:32:00,52.0,50.0,-100.00,SSW,203,0.0,10.0,93,0.00,,,-99.99,,2013-01-11 23:32:00,
2013-01-11 18:43:00,53.0,50.0,-100.00,NNE,24,0.0,10.0,93,0.00,,,-99.99,,2013-01-11 23:43:00,
2013-01-11 18:53:00,53.0,50.0,-100.00,SW,218,0.0,10.0,94,0.00,,,-99.99,,2013-01-11 23:53:00,
2013-01-11 19:03:00,52.0,48.0,-100.00,South,180,0.0,10.0,93,0.00,,,-99.99,,2013-01-12 00:03:00,
2013-01-11 19:12:00,52.0,50.0,-100.00,South,177,0.0,10.0,95,0.00,,,-99.99,,2013-01-12 00:12:00,
2013-01-11 19:23:00,52.0,50.0,-100.00,SSW,206,0.0,10.0,94,0.00,,,-99.99,,2013-01-12 00:23:00,
2013-01-11 19:33:00,51.0,48.0,-100.00,SW,230,0.0,10.0,94,0.00,,,-99.99,,2013-01-12 00:33:00,
2013-01-11 19:43:00,51.0,48.0,-100.00,WSW,241,0.0,10.0,95,0.00,,,-99.99,,2013-01-12 00:43:00,
2013-01-11 19:52:00,50.0,46.0,-100.00,ENE,73,0.0,10.0,94,1.69,,,-99.99,,2013-01-12 00:52:00,
2013-01-11 20:03:00,50.0,46.0,-100.00,NNE,18,0.0,10.0,94,1.69,,,-99.99,,2013-01-12 01:03:00,
2013-01-11 20:12:00,49.0,46.0,-100.00,SW,232,0.0,10.0,95,0.00,,,-99.99,,2013-01-12 01:12:00,
2013-01-11 20:22:00,49.0,46.0,-100.00,West,266,0.0,10.0,97,1.69,,,-99.99,,2013-01-12 01:22:00,
2013-01-11 20:33:00,47.0,45.0,-100.00,WNW,303,0.0,10.0,95,0.00,,,-99.99,,2013-01-12 01:33:00,
2013-01-11 20:43:00,46.0,43.0,-100.00,West,269,0.0,10.0,95,1.69,,,-99.99,,2013-01-12 01:43:00,
2013-01-11 20:52:00,46.0,43.0,-100.00,WSW,256,0.0,10.0,95,1.69,,,-99.99,,2013-01-12 01:52:00,
2013-01-11 21:02:00,46.0,43.0,-100.00,WSW,256,0.0,10.0,95,1.69,,,-99.99,,2013-01-12 02:02:00,
2013-01-11 21:12:00,46.0,45.0,-100.00,NNW,331,0.0,10.0,97,0.00,,,-99.99,,2013-01-12 02:12:00,
2013-01-11 21:22:00,46.0,45.0,-100.00,East,91,0.0,10.0,97,0.55,,,-99.99,,2013-01-12 02:22:00,
2013-01-11 21:33:00,45.0,43.0,-100.00,West,265,0.0,10.0,95,1.69,,,-99.99,,2013-01-12 02:33:00,
2013-01-11 21:43:00,45.0,43.0,-100.00,NNW,330,0.0,10.0,97,0.00,,,-99.99,,2013-01-12 02:43:00,
2013-01-11 21:53:00,44.0,43.0,-100.00,SW,221,0.0,10.0,98,1.69,,,-99.99,,2013-01-12 02:53:00,
2013-01-11 22:03:00,42.0,39.0,-100.00,WSW,242,0.0,10.0,97,1.69,,,-99.99,,2013-01-12 03:03:00,
2013-01-11 22:12:00,45.0,43.0,-100.00,NE,52,0.0,10.0,97,0.00,,,-99.99,,2013-01-12 03:12:00,
2013-01-11 22:22:00,46.0,45.0,-100.00,WSW,242,0.0,10.0,97,0.00,,,-99.99,,2013-01-12 03:22:00,
2013-01-11 22:33:00,43.0,41.0,-100.00,NNW,344,0.0,10.0,97,0.00,,,-99.99,,2013-01-12 03:33:00,
2013-01-11 22:43:00,43.0,41.0,-100.00,NNW,344,0.0,10.0,97,0.00,,,-99.99,,2013-01-12 03:43:00,
2013-01-11 22:52:00,43.0,41.0,-100.00,NNW,337,0.0,10.0,98,1.69,,,-99.99,,2013-01-12 03:52:00,
2013-01-11 23:02:00,43.0,41.0,-100.00,SW,218,0.0,10.0,97,0.00,,,-99.99,,2013-01-12 04:02:00,
2013-01-11 23:12:00,43.0,41.0,-100.00,WNW,293,0.0,10.0,97,0.00,,,-99.99,,2013-01-12 04:12:00,
2013-01-11 23:22:00,42.0,39.0,-100.00,WSW,256,0.0,10.0,97,0.00,,,-99.99,,2013-01-12 04:22:00,
2013-01-11 23:32:00,42.0,41.0,-100.00,WSW,248,0.0,10.0,97,0.00,,,-99.99,,2013-01-12 04:32:00,
2013-01-11 23:42:00,41.0,39.0,-100.00,SW,217,0.0,10.0,98,0.00,,,-99.99,,2013-01-12 04:42:00,
2013-01-11 23:52:00,42.0,41.0,-100.00,WSW,237,0.0,10.0,98,0.00,,,-99.99,,2013-01-12 04:52:00,